createdAt,value
2022-09-27T00:02:23.701Z,17.10
2022-09-27T00:05:13.399Z,16.90
2022-09-27T00:08:03.017Z,16.90
2022-09-27T00:11:01.166Z,17.00
2022-09-27T00:13:50.333Z,17.00
2022-09-27T00:16:41.402Z,17.10
2022-09-27T00:19:30.415Z,17.20
2022-09-27T00:22:19.576Z,17.30
2022-09-27T00:25:09.301Z,17.20
2022-09-27T00:27:59.983Z,17.00
2022-09-27T00:30:49.481Z,17.10
2022-09-27T00:33:38.552Z,17.00
2022-09-27T00:36:29.348Z,17.20
2022-09-27T00:39:18.524Z,17.10
2022-09-27T00:42:08.443Z,17.20
2022-09-27T00:45:15.328Z,17.30
2022-09-27T00:48:07.100Z,17.40
2022-09-27T00:51:00.650Z,17.50
2022-09-27T00:53:53.274Z,17.50
2022-09-27T00:56:43.422Z,17.60
2022-09-27T00:59:37.035Z,17.70
2022-09-27T01:02:28.262Z,17.70
2022-09-27T01:05:20.276Z,17.70
2022-09-27T01:08:10.189Z,17.60
2022-09-27T01:11:12.496Z,17.80
2022-09-27T01:14:14.946Z,17.90
2022-09-27T01:17:11.543Z,17.80
2022-09-27T01:20:45.644Z,17.80
2022-09-27T01:24:13.102Z,17.70
2022-09-27T01:27:37.318Z,17.80
2022-09-27T01:30:31.502Z,17.80
2022-09-27T01:33:30.599Z,17.80
2022-09-27T01:36:26.262Z,17.80
2022-09-27T01:39:26.799Z,17.70
2022-09-27T01:42:23.554Z,17.60
2022-09-27T01:45:19.624Z,17.50
2022-09-27T01:48:15.407Z,17.50
2022-09-27T01:51:08.913Z,17.50
2022-09-27T01:54:02.624Z,17.60
2022-09-27T01:56:55.382Z,17.60
2022-09-27T01:59:49.038Z,17.70
2022-09-27T02:02:42.064Z,17.60
2022-09-27T02:05:36.898Z,17.60
2022-09-27T02:08:32.227Z,17.50
2022-09-27T02:11:21.156Z,17.50
2022-09-27T02:14:18.248Z,17.50
2022-09-27T02:17:15.052Z,17.50
2022-09-27T02:20:12.815Z,17.40
2022-09-27T02:23:12.678Z,17.40
2022-09-27T02:26:05.328Z,17.40
2022-09-27T02:29:00.587Z,17.10
2022-09-27T02:31:49.919Z,17.10
2022-09-27T02:34:41.344Z,17.20
2022-09-27T02:37:30.726Z,17.30
2022-09-27T02:40:21.825Z,17.20
2022-09-27T02:43:10.789Z,17.20
2022-09-27T02:46:12.851Z,17.10
2022-09-27T02:49:12.513Z,17.20
2022-09-27T02:52:13.634Z,17.30
2022-09-27T02:55:11.312Z,17.30
2022-09-27T02:58:14.565Z,17.20
2022-09-27T03:01:09.523Z,17.20
2022-09-27T03:04:05.910Z,16.90
2022-09-27T03:06:57.570Z,16.80
2022-09-27T03:09:48.625Z,16.70
2022-09-27T03:12:37.898Z,16.60
2022-09-27T03:15:28.343Z,16.60
2022-09-27T03:18:17.181Z,16.70
2022-09-27T03:21:06.175Z,16.80
2022-09-27T03:23:55.035Z,16.80
2022-09-27T03:26:44.280Z,16.80
2022-09-27T03:29:33.738Z,16.80
2022-09-27T03:32:24.534Z,16.70
2022-09-27T03:35:13.863Z,16.70
2022-09-27T03:38:02.911Z,16.90
2022-09-27T03:40:51.888Z,16.80
2022-09-27T03:43:41.831Z,16.80
2022-09-27T03:46:30.920Z,16.80
2022-09-27T03:49:21.411Z,16.60
2022-09-27T03:52:10.522Z,16.50
2022-09-27T03:55:02.123Z,16.60
2022-09-27T03:57:51.710Z,16.70
2022-09-27T04:00:41.471Z,16.80
2022-09-27T04:03:30.470Z,16.80
2022-09-27T04:06:21.100Z,16.80
2022-09-27T04:09:10.576Z,16.90
2022-09-27T04:11:59.799Z,17.00
2022-09-27T04:14:49.635Z,16.90
2022-09-27T04:17:38.391Z,16.90
2022-09-27T04:20:27.612Z,16.80
2022-09-27T04:23:18.524Z,16.80
2022-09-27T04:26:09.350Z,16.80
2022-09-27T06:36:25.628Z,16.60
2022-09-27T06:39:14.618Z,16.60
2022-09-27T06:42:03.943Z,16.70
2022-09-27T06:44:52.957Z,16.80
2022-09-27T06:47:42.568Z,16.80
2022-09-27T06:50:32.856Z,16.90
2022-09-27T06:53:23.324Z,17.00
2022-09-27T06:56:12.574Z,17.10
2022-09-27T06:59:19.413Z,17.20
2022-09-27T07:02:08.592Z,17.40
2022-09-27T07:04:59.646Z,17.40
2022-09-27T07:07:49.486Z,17.50
2022-09-27T07:10:40.975Z,17.60
2022-09-27T07:13:33.182Z,17.70
2022-09-27T07:16:22.901Z,17.80
2022-09-27T07:19:13.875Z,17.90
2022-09-27T07:22:03.233Z,18.00
2022-09-27T07:24:52.605Z,18.00
2022-09-27T07:27:43.718Z,18.10
2022-09-27T07:30:33.400Z,18.10
2022-09-27T07:33:22.724Z,18.10
2022-09-27T07:36:15.031Z,18.30
2022-09-27T07:39:04.122Z,18.40
2022-09-27T07:41:54.215Z,18.40
2022-09-27T07:44:44.538Z,18.40
2022-09-27T07:47:33.439Z,18.40
2022-09-27T07:50:22.503Z,18.40
2022-09-27T07:53:13.944Z,18.60
2022-09-27T07:56:03.699Z,18.70
2022-09-27T07:58:52.703Z,18.80
2022-09-27T08:01:44.563Z,18.90
2022-09-27T08:04:33.979Z,19.00
2022-09-27T08:07:23.092Z,19.00
2022-09-27T08:10:12.459Z,19.10
2022-09-27T08:13:04.394Z,19.20
2022-09-27T08:15:53.601Z,19.30
2022-09-27T08:18:44.190Z,19.40
2022-09-27T08:21:33.568Z,19.50
2022-09-27T08:24:22.742Z,19.50
2022-09-27T08:27:12.926Z,19.60
2022-09-27T08:30:01.635Z,19.70
2022-09-27T08:32:51.517Z,19.50
2022-09-27T08:35:42.364Z,19.60
2022-09-27T08:38:31.672Z,19.60
2022-09-27T08:41:29.963Z,19.50
2022-09-27T08:44:28.313Z,19.60
2022-09-27T08:47:19.643Z,19.70
2022-09-27T08:50:23.077Z,19.60
2022-09-27T08:53:23.566Z,19.60
2022-09-27T08:56:14.526Z,19.70
2022-09-27T08:59:12.497Z,19.80
2022-09-27T09:02:01.550Z,19.90
2022-09-27T09:04:55.541Z,20.00
2022-09-27T09:08:02.743Z,20.10
2022-09-27T09:11:16.170Z,20.20
2022-09-27T09:14:23.377Z,20.20
2022-09-27T09:17:21.957Z,20.30
2022-09-27T09:20:24.064Z,20.40
2022-09-27T09:23:29.199Z,20.50
2022-09-27T09:26:28.789Z,20.60
2022-09-27T09:29:28.781Z,20.60
2022-09-27T09:32:30.633Z,20.70
2022-09-27T09:35:23.369Z,20.80
2022-09-27T09:38:17.802Z,20.90
2022-09-27T09:41:13.402Z,20.90
2022-09-27T09:44:12.090Z,20.90
2022-09-27T09:47:03.503Z,21.00
2022-09-27T09:49:58.346Z,21.10
2022-09-27T09:52:50.210Z,21.20
2022-09-27T09:55:42.465Z,21.30
2022-09-27T09:58:36.999Z,21.50
2022-09-27T10:01:30.346Z,21.60
2022-09-27T10:04:24.223Z,21.80
2022-09-27T10:07:14.301Z,21.80
2022-09-27T10:12:53.860Z,22.20
2022-09-27T10:15:43.475Z,22.20
2022-09-27T10:18:36.881Z,22.20
2022-09-27T10:21:30.147Z,22.30
2022-09-27T10:24:21.015Z,22.40
2022-09-27T10:27:10.421Z,22.50
2022-09-27T10:30:00.872Z,22.60
2022-09-27T10:35:46.163Z,22.90
2022-09-27T10:38:37.634Z,23.00
2022-09-27T10:41:32.940Z,23.00
2022-09-27T10:44:26.439Z,23.20
2022-09-27T10:47:23.300Z,23.30
2022-09-27T10:50:48.883Z,23.50
2022-09-27T10:53:34.201Z,23.60
2022-09-27T10:56:26.004Z,23.70
2022-09-27T10:59:20.872Z,23.90
2022-09-27T11:02:21.618Z,24.10
2022-09-27T11:05:15.576Z,24.20
2022-09-27T11:08:26.048Z,24.20
2022-09-27T11:11:22.076Z,24.20
2022-09-27T11:14:20.670Z,24.40
2022-09-27T11:17:14.286Z,24.50
2022-09-27T11:20:25.896Z,24.70
2022-09-27T11:23:34.234Z,24.80
2022-09-27T11:29:38.985Z,25.20
2022-09-27T11:32:38.343Z,25.30
2022-09-27T11:38:51.680Z,25.60
2022-09-27T11:41:51.348Z,25.70
2022-09-27T11:45:27.829Z,25.90
2022-09-27T11:48:28.372Z,25.90
2022-09-27T11:51:35.043Z,26.00
2022-09-27T11:54:37.153Z,26.00
2022-09-27T11:57:33.281Z,26.30
2022-09-27T12:00:24.780Z,26.50
2022-09-27T12:03:55.603Z,26.20
2022-09-27T12:06:51.851Z,26.00
2022-09-27T12:09:46.726Z,25.80
2022-09-27T12:12:41.005Z,25.40
2022-09-27T12:15:33.955Z,25.10
2022-09-27T12:18:29.435Z,25.00
2022-09-27T12:21:19.452Z,24.90
2022-09-27T12:24:12.205Z,24.70
2022-09-27T12:27:09.940Z,24.60
2022-09-27T12:30:02.472Z,24.60
2022-09-27T12:32:59.406Z,24.60
2022-09-27T12:35:52.963Z,24.90
2022-09-27T12:38:45.450Z,25.20
2022-09-27T12:41:40.410Z,25.70
2022-09-27T12:44:30.459Z,26.00
2022-09-27T12:47:40.595Z,26.50
2022-09-27T12:50:36.592Z,26.90
2022-09-27T12:53:31.343Z,27.20
2022-09-27T12:59:41.534Z,26.50
2022-09-27T13:03:15.388Z,26.00
2022-09-27T13:06:32.481Z,25.40
2022-09-27T13:10:05.575Z,24.80
2022-09-27T13:15:46.748Z,24.20
2022-09-27T13:19:01.427Z,24.20
2022-09-27T13:21:59.595Z,24.50
2022-09-27T13:24:50.196Z,24.60
2022-09-27T13:27:43.844Z,24.40
2022-09-27T13:30:48.049Z,24.10
2022-09-27T13:33:47.884Z,24.00
2022-09-27T13:36:37.975Z,24.20
2022-09-27T13:39:27.093Z,24.30
2022-09-27T13:42:30.599Z,24.40
2022-09-27T13:45:24.282Z,24.10
2022-09-27T13:48:18.619Z,23.90
2022-09-27T13:51:18.476Z,23.70
2022-09-27T13:54:40.632Z,23.50
2022-09-27T13:57:53.171Z,23.70
2022-09-27T14:00:46.166Z,23.40
2022-09-27T14:03:38.766Z,23.40
2022-09-27T14:06:31.946Z,23.50
2022-09-27T14:09:27.064Z,23.70
2022-09-27T14:12:22.753Z,23.80
2022-09-27T14:15:20.585Z,23.80
2022-09-27T14:18:14.795Z,23.70
2022-09-27T14:21:18.545Z,23.70
2022-09-27T14:24:33.931Z,23.70
2022-09-27T14:27:25.117Z,23.70
2022-09-27T14:30:18.858Z,23.60
2022-09-27T14:33:27.999Z,23.50
2022-09-27T14:36:44.912Z,23.50
2022-09-27T14:39:38.214Z,23.40
2022-09-27T14:42:28.711Z,23.10
2022-09-27T14:45:22.797Z,23.20
2022-09-27T14:48:21.714Z,23.30
2022-09-27T14:51:21.873Z,23.30
2022-09-27T14:54:23.319Z,23.50
2022-09-27T14:57:17.119Z,23.70
2022-09-27T15:00:18.308Z,23.70
2022-09-27T15:03:11.031Z,23.70
2022-09-27T15:06:01.689Z,23.80
2022-09-27T15:08:50.904Z,23.90
2022-09-27T15:11:41.635Z,24.00
2022-09-27T15:14:33.529Z,23.80
2022-09-27T15:17:23.333Z,23.70
2022-09-27T15:20:25.233Z,23.70
2022-09-27T15:23:28.449Z,23.60
2022-09-27T15:26:21.645Z,23.60
2022-09-27T15:29:20.365Z,23.50
2022-09-27T15:32:18.788Z,23.40
2022-09-27T15:35:10.114Z,23.30
2022-09-27T15:38:31.028Z,23.20
2022-09-27T15:41:21.250Z,23.30
2022-09-27T15:44:36.192Z,23.30
2022-09-27T15:47:48.639Z,23.20
2022-09-27T15:50:39.847Z,23.10
2022-09-27T15:53:48.662Z,22.90
2022-09-27T15:59:30.216Z,22.70
2022-09-27T16:02:23.785Z,22.50
2022-09-27T16:05:16.687Z,22.50
2022-09-27T16:08:06.389Z,22.40
2022-09-27T16:10:57.937Z,22.40
2022-09-27T16:13:47.788Z,22.40
2022-09-27T16:16:36.713Z,22.30
2022-09-27T16:19:30.010Z,22.20
2022-09-27T16:22:26.254Z,22.20
2022-09-27T16:25:16.154Z,22.10
2022-09-27T16:28:08.697Z,22.00
2022-09-27T16:31:04.328Z,22.00
2022-09-27T16:33:53.701Z,21.90
2022-09-27T16:36:44.780Z,21.90
2022-09-27T16:39:36.292Z,21.80
2022-09-27T16:42:25.278Z,21.70
2022-09-27T16:45:19.321Z,21.70
2022-09-27T16:48:09.235Z,21.70
2022-09-27T16:51:21.231Z,21.60
2022-09-27T16:54:10.438Z,21.60
2022-09-27T16:57:01.461Z,21.60
2022-09-27T16:59:50.717Z,21.50
2022-09-27T17:02:40.362Z,21.50
2022-09-27T17:05:29.852Z,21.40
2022-09-27T17:08:19.046Z,21.40
2022-09-27T17:11:08.215Z,21.30
2022-09-27T17:13:58.723Z,21.20
2022-09-27T17:16:48.397Z,21.10
2022-09-27T17:19:38.294Z,21.10
2022-09-27T17:22:27.567Z,21.10
2022-09-27T17:25:16.933Z,21.00
2022-09-27T17:28:05.675Z,20.90
2022-09-27T17:30:56.432Z,20.90
2022-09-27T17:33:47.161Z,20.90
2022-09-27T17:36:37.842Z,20.90
2022-09-27T17:39:26.786Z,20.90
2022-09-27T17:42:15.771Z,20.90
2022-09-27T17:45:05.278Z,20.70
2022-09-27T17:48:13.735Z,20.60
2022-09-27T17:51:03.429Z,20.60
2022-09-27T17:53:52.930Z,20.50
2022-09-27T17:56:42.963Z,20.40
2022-09-27T17:59:34.157Z,20.40
2022-09-27T18:02:24.179Z,20.40
2022-09-27T18:05:15.619Z,20.30
2022-09-27T18:08:06.306Z,20.10
2022-09-27T18:10:59.771Z,20.10
2022-09-27T18:13:54.895Z,20.10
2022-09-27T18:16:44.922Z,20.10
2022-09-27T18:19:37.340Z,20.10
2022-09-27T18:22:33.349Z,20.00
2022-09-27T18:25:22.600Z,19.90
2022-09-27T18:28:15.563Z,20.00
2022-09-27T18:31:11.798Z,19.90
2022-09-27T18:34:05.063Z,19.90
2022-09-27T18:36:55.323Z,20.00
2022-09-27T18:39:45.967Z,19.90
2022-09-27T18:42:37.129Z,20.00
2022-09-27T18:45:26.562Z,20.00
2022-09-27T18:48:19.825Z,20.10
2022-09-27T18:51:12.385Z,20.20
2022-09-27T18:54:04.002Z,20.10
2022-09-27T18:56:59.126Z,19.90
2022-09-27T18:59:50.640Z,19.90
2022-09-27T19:02:42.532Z,20.00
2022-09-27T19:05:34.523Z,20.10
2022-09-27T19:08:25.427Z,20.00
2022-09-27T19:11:21.267Z,19.90
2022-09-27T19:14:22.526Z,19.80
2022-09-27T19:17:12.063Z,19.60
2022-09-27T19:20:02.856Z,19.50
2022-09-27T19:22:52.326Z,19.60
2022-09-27T19:25:46.936Z,19.50
2022-09-27T19:28:41.498Z,19.60
2022-09-27T19:31:39.223Z,19.50
2022-09-27T19:34:30.717Z,19.30
2022-09-27T19:37:21.764Z,19.30
2022-09-27T19:40:17.519Z,19.30
2022-09-27T19:43:07.387Z,19.20
2022-09-27T19:46:00.483Z,19.20
2022-09-27T19:48:57.266Z,19.20
2022-09-27T19:51:50.497Z,19.20
2022-09-27T19:54:46.512Z,19.20
2022-09-27T19:57:36.962Z,19.20
2022-09-27T20:00:31.236Z,19.20
2022-09-27T20:03:21.213Z,19.40
2022-09-27T20:06:17.774Z,19.10
2022-09-27T20:09:10.114Z,19.10
2022-09-27T20:12:01.046Z,19.00
2022-09-27T20:14:51.151Z,19.00
2022-09-27T20:17:42.368Z,19.10
2022-09-27T20:20:30.918Z,19.00
2022-09-27T20:26:17.655Z,18.80
2022-09-27T20:29:08.138Z,18.80
2022-09-27T20:32:25.489Z,18.80
2022-09-27T20:35:11.472Z,18.60
2022-09-27T20:38:04.649Z,18.40
2022-09-27T20:41:00.004Z,18.50
2022-09-27T20:43:54.376Z,18.60
2022-09-27T20:46:47.725Z,18.60
2022-09-27T20:49:40.272Z,18.40
2022-09-27T20:52:30.396Z,18.50
2022-09-27T20:55:20.469Z,18.50
2022-09-27T20:58:12.623Z,18.30
2022-09-27T21:01:07.222Z,18.60
2022-09-27T21:03:56.984Z,18.50
2022-09-27T21:06:46.827Z,18.40
2022-09-27T21:09:38.326Z,18.40
2022-09-27T21:12:27.418Z,18.20
2022-09-27T21:15:18.323Z,18.20
2022-09-27T21:18:07.896Z,18.10
2022-09-27T21:21:00.786Z,18.10
2022-09-27T21:23:54.580Z,18.10
2022-09-27T21:26:44.358Z,18.10
2022-09-27T21:29:34.121Z,18.20
2022-09-27T21:32:26.706Z,18.20
2022-09-27T21:35:16.298Z,18.10
2022-09-27T21:38:05.660Z,18.00
2022-09-27T21:40:58.570Z,18.00
2022-09-27T21:43:49.458Z,17.90
2022-09-27T21:46:42.238Z,18.00
2022-09-27T21:49:34.379Z,18.00
2022-09-27T21:52:23.402Z,18.00
2022-09-27T21:55:12.377Z,18.00
2022-09-27T21:58:02.009Z,18.00
2022-09-27T22:00:51.179Z,18.00
2022-09-27T22:03:42.814Z,17.90
2022-09-27T22:06:34.885Z,17.80
2022-09-27T22:09:24.018Z,17.80
2022-09-27T22:12:13.092Z,17.30
2022-09-27T22:15:01.919Z,18.00
